sensor_id;sensor_type;location;lat;lon;timestamp;pressure;altitude;pressure_sealevel;temperature;humidity
35202;BME280;20553;47.544;7.586;2022-07-09T00:01:44;99346.50;;;13.67;81.49
35202;BME280;20553;47.544;7.586;2022-07-09T00:06:49;99338.94;;;13.58;82.85
35202;BME280;20553;47.544;7.586;2022-07-09T00:11:54;99343.88;;;13.50;83.32
35202;BME280;20553;47.544;7.586;2022-07-09T00:17:01;99334.72;;;13.36;84.60
35202;BME280;20553;47.544;7.586;2022-07-09T00:22:05;99336.56;;;13.36;85.54
35202;BME280;20553;47.544;7.586;2022-07-09T00:27:12;99328.88;;;13.28;85.92
35202;BME280;20553;47.544;7.586;2022-07-09T00:32:18;99325.38;;;13.10;86.22
35202;BME280;20553;47.544;7.586;2022-07-09T00:37:23;99323.75;;;12.90;87.67
35202;BME280;20553;47.544;7.586;2022-07-09T00:42:28;99319.47;;;12.86;88.21
35202;BME280;20553;47.544;7.586;2022-07-09T00:47:36;99316.94;;;12.83;87.97
35202;BME280;20553;47.544;7.586;2022-07-09T00:52:41;99309.69;;;12.85;87.78
35202;BME280;20553;47.544;7.586;2022-07-09T00:57:47;99319.09;;;12.76;87.90
35202;BME280;20553;47.544;7.586;2022-07-09T01:02:53;99310.50;;;12.69;88.99
35202;BME280;20553;47.544;7.586;2022-07-09T01:07:58;99310.81;;;12.63;89.60
35202;BME280;20553;47.544;7.586;2022-07-09T01:13:06;99317.88;;;12.48;90.72
35202;BME280;20553;47.544;7.586;2022-07-09T01:18:12;99319.28;;;12.38;91.67
35202;BME280;20553;47.544;7.586;2022-07-09T01:23:18;99320.94;;;12.41;91.38
35202;BME280;20553;47.544;7.586;2022-07-09T01:28:23;99317.47;;;12.39;92.87
35202;BME280;20553;47.544;7.586;2022-07-09T01:33:27;99305.06;;;12.36;94.00
35202;BME280;20553;47.544;7.586;2022-07-09T01:38:35;99305.16;;;12.35;94.42
35202;BME280;20553;47.544;7.586;2022-07-09T01:43:43;99301.84;;;12.29;94.26
35202;BME280;20553;47.544;7.586;2022-07-09T01:48:47;99296.94;;;12.20;94.08
35202;BME280;20553;47.544;7.586;2022-07-09T01:53:57;99294.25;;;12.20;93.77
35202;BME280;20553;47.544;7.586;2022-07-09T01:59:01;99292.34;;;12.22;93.27
35202;BME280;20553;47.544;7.586;2022-07-09T02:04:10;99295.81;;;12.24;92.65
35202;BME280;20553;47.544;7.586;2022-07-09T02:09:17;99288.16;;;12.17;92.81
35202;BME280;20553;47.544;7.586;2022-07-09T02:14:24;99284.41;;;12.02;93.94
35202;BME280;20553;47.544;7.586;2022-07-09T02:19:32;99279.63;;;11.89;95.24
35202;BME280;20553;47.544;7.586;2022-07-09T02:24:39;99280.91;;;11.82;97.12
35202;BME280;20553;47.544;7.586;2022-07-09T02:29:53;99281.34;;;11.73;98.55
35202;BME280;20553;47.544;7.586;2022-07-09T02:34:58;99282.19;;;11.73;99.88
35202;BME280;20553;47.544;7.586;2022-07-09T02:40:11;99275.34;;;11.68;100.00
35202;BME280;20553;47.544;7.586;2022-07-09T02:45:17;99277.16;;;11.48;100.00
35202;BME280;20553;47.544;7.586;2022-07-09T02:50:22;99283.00;;;11.39;100.00
35202;BME280;20553;47.544;7.586;2022-07-09T02:55:28;99273.34;;;11.35;100.00
35202;BME280;20553;47.544;7.586;2022-07-09T03:00:33;99276.03;;;11.35;100.00
35202;BME280;20553;47.544;7.586;2022-07-09T03:05:42;99279.63;;;11.34;100.00
35202;BME280;20553;47.544;7.586;2022-07-09T03:10:48;99286.59;;;11.38;100.00
35202;BME280;20553;47.544;7.586;2022-07-09T03:15:53;99281.16;;;11.39;100.00
35202;BME280;20553;47.544;7.586;2022-07-09T03:20:59;99277.41;;;11.44;100.00
35202;BME280;20553;47.544;7.586;2022-07-09T03:26:06;99283.78;;;11.41;100.00
35202;BME280;20553;47.544;7.586;2022-07-09T03:31:12;99287.31;;;11.41;100.00
35202;BME280;20553;47.544;7.586;2022-07-09T03:36:19;99283.13;;;11.36;100.00
35202;BME280;20553;47.544;7.586;2022-07-09T03:41:29;99277.50;;;11.42;100.00
35202;BME280;20553;47.544;7.586;2022-07-09T03:46:47;99280.50;;;11.53;100.00
35202;BME280;20553;47.544;7.586;2022-07-09T03:51:52;99290.28;;;11.54;100.00
35202;BME280;20553;47.544;7.586;2022-07-09T03:57:17;99278.75;;;11.52;100.00
35202;BME280;20553;47.544;7.586;2022-07-09T04:02:22;99286.03;;;11.50;100.00
35202;BME280;20553;47.544;7.586;2022-07-09T04:07:27;99294.88;;;11.52;100.00
35202;BME280;20553;47.544;7.586;2022-07-09T04:12:34;99292.09;;;11.54;100.00
35202;BME280;20553;47.544;7.586;2022-07-09T04:17:39;99301.16;;;11.51;100.00
35202;BME280;20553;47.544;7.586;2022-07-09T04:22:48;99302.84;;;11.54;100.00
35202;BME280;20553;47.544;7.586;2022-07-09T04:27:55;99307.47;;;11.69;100.00
35202;BME280;20553;47.544;7.586;2022-07-09T04:33:00;99309.78;;;11.77;100.00
35202;BME280;20553;47.544;7.586;2022-07-09T04:38:06;99311.22;;;11.84;100.00
35202;BME280;20553;47.544;7.586;2022-07-09T04:43:11;99312.06;;;12.04;100.00
35202;BME280;20553;47.544;7.586;2022-07-09T04:48:17;99311.06;;;12.24;100.00
35202;BME280;20553;47.544;7.586;2022-07-09T04:53:22;99309.81;;;12.48;100.00
35202;BME280;20553;47.544;7.586;2022-07-09T04:58:28;99312.41;;;12.67;100.00
35202;BME280;20553;47.544;7.586;2022-07-09T05:03:33;99315.22;;;12.82;100.00
35202;BME280;20553;47.544;7.586;2022-07-09T05:08:37;99319.78;;;12.97;100.00
35202;BME280;20553;47.544;7.586;2022-07-09T05:13:42;99312.38;;;13.18;99.77
35202;BME280;20553;47.544;7.586;2022-07-09T05:18:48;99310.34;;;13.39;98.06
35202;BME280;20553;47.544;7.586;2022-07-09T05:23:53;99310.59;;;13.67;95.88
35202;BME280;20553;47.544;7.586;2022-07-09T05:28:59;99305.75;;;13.89;93.85
35202;BME280;20553;47.544;7.586;2022-07-09T05:34:04;99308.25;;;14.08;92.00
35202;BME280;20553;47.544;7.586;2022-07-09T05:39:08;99321.41;;;14.29;89.94
35202;BME280;20553;47.544;7.586;2022-07-09T05:44:14;99316.47;;;14.52;88.35
35202;BME280;20553;47.544;7.586;2022-07-09T05:49:24;99313.38;;;14.74;86.07
35202;BME280;20553;47.544;7.586;2022-07-09T05:54:29;99313.88;;;14.95;84.56
35202;BME280;20553;47.544;7.586;2022-07-09T05:59:34;99314.25;;;15.17;82.84
35202;BME280;20553;47.544;7.586;2022-07-09T06:04:38;99309.50;;;15.50;80.59
35202;BME280;20553;47.544;7.586;2022-07-09T06:09:43;99308.19;;;15.84;78.48
35202;BME280;20553;47.544;7.586;2022-07-09T06:14:48;99311.97;;;16.09;75.69
35202;BME280;20553;47.544;7.586;2022-07-09T06:19:53;99319.16;;;16.23;74.79
35202;BME280;20553;47.544;7.586;2022-07-09T06:24:57;99312.78;;;16.77;72.22
35202;BME280;20553;47.544;7.586;2022-07-09T06:30:03;99313.44;;;17.45;67.78
35202;BME280;20553;47.544;7.586;2022-07-09T06:35:09;99304.63;;;18.39;62.44
35202;BME280;20553;47.544;7.586;2022-07-09T06:40:14;99306.56;;;19.76;57.24
35202;BME280;20553;47.544;7.586;2022-07-09T06:45:19;99300.72;;;21.20;50.76
35202;BME280;20553;47.544;7.586;2022-07-09T06:50:23;99285.72;;;22.36;45.76
35202;BME280;20553;47.544;7.586;2022-07-09T06:55:27;99293.63;;;23.26;42.92
35202;BME280;20553;47.544;7.586;2022-07-09T07:00:33;99286.72;;;24.69;40.43
35202;BME280;20553;47.544;7.586;2022-07-09T07:05:37;99289.91;;;25.69;37.79
35202;BME280;20553;47.544;7.586;2022-07-09T07:10:42;99288.56;;;26.24;35.68
35202;BME280;20553;47.544;7.586;2022-07-09T07:15:47;99271.34;;;25.97;34.87
35202;BME280;20553;47.544;7.586;2022-07-09T07:20:52;99280.66;;;26.13;35.04
35202;BME280;20553;47.544;7.586;2022-07-09T07:25:56;99274.38;;;25.94;35.05
35202;BME280;20553;47.544;7.586;2022-07-09T07:31:02;99265.44;;;26.76;33.57
35202;BME280;20553;47.544;7.586;2022-07-09T07:36:07;99260.66;;;27.51;32.06
35202;BME280;20553;47.544;7.586;2022-07-09T07:41:11;99265.78;;;27.85;31.73
35202;BME280;20553;47.544;7.586;2022-07-09T07:46:17;99261.81;;;27.96;31.21
35202;BME280;20553;47.544;7.586;2022-07-09T07:51:21;99258.19;;;28.27;30.18
35202;BME280;20553;47.544;7.586;2022-07-09T07:56:27;99242.47;;;28.04;29.72
35202;BME280;20553;47.544;7.586;2022-07-09T08:01:33;99241.88;;;27.54;30.67
35202;BME280;20553;47.544;7.586;2022-07-09T08:06:37;99246.19;;;29.19;29.00
35202;BME280;20553;47.544;7.586;2022-07-09T08:18:02;99246.31;;;29.02;28.23
35202;BME280;20553;47.544;7.586;2022-07-09T08:23:07;99230.19;;;29.14;28.57
35202;BME280;20553;47.544;7.586;2022-07-09T08:28:12;99226.00;;;29.63;27.88
35202;BME280;20553;47.544;7.586;2022-07-09T08:33:17;99224.25;;;30.35;26.28
35202;BME280;20553;47.544;7.586;2022-07-09T08:38:22;99213.47;;;29.97;26.31
35202;BME280;20553;47.544;7.586;2022-07-09T08:43:27;99216.94;;;30.70;26.05
35202;BME280;20553;47.544;7.586;2022-07-09T08:48:34;99213.28;;;30.92;25.51
35202;BME280;20553;47.544;7.586;2022-07-09T08:53:43;99207.75;;;31.20;24.93
35202;BME280;20553;47.544;7.586;2022-07-09T08:58:48;99205.69;;;31.35;24.31
35202;BME280;20553;47.544;7.586;2022-07-09T09:03:54;99197.97;;;31.66;23.91
35202;BME280;20553;47.544;7.586;2022-07-09T09:08:58;99193.84;;;32.10;23.59
35202;BME280;20553;47.544;7.586;2022-07-09T09:14:03;99191.34;;;32.89;22.76
35202;BME280;20553;47.544;7.586;2022-07-09T09:19:09;99192.25;;;33.54;22.20
35202;BME280;20553;47.544;7.586;2022-07-09T09:24:22;99180.59;;;33.84;21.16
35202;BME280;20553;47.544;7.586;2022-07-09T09:29:27;99187.94;;;32.73;22.13
35202;BME280;20553;47.544;7.586;2022-07-09T09:34:35;99177.69;;;32.74;22.70
35202;BME280;20553;47.544;7.586;2022-07-09T09:39:49;99177.19;;;33.82;21.80
35202;BME280;20553;47.544;7.586;2022-07-09T09:44:58;99179.75;;;34.47;20.75
35202;BME280;20553;47.544;7.586;2022-07-09T09:50:06;99166.25;;;35.20;19.44
35202;BME280;20553;47.544;7.586;2022-07-09T09:55:19;99168.97;;;35.45;19.52
35202;BME280;20553;47.544;7.586;2022-07-09T10:00:23;99166.09;;;36.43;18.65
35202;BME280;20553;47.544;7.586;2022-07-09T10:05:29;99154.69;;;37.68;17.71
35202;BME280;20553;47.544;7.586;2022-07-09T10:10:34;99148.03;;;37.98;17.25
35202;BME280;20553;47.544;7.586;2022-07-09T10:15:38;99143.66;;;36.97;18.54
35202;BME280;20553;47.544;7.586;2022-07-09T10:20:56;99150.81;;;38.27;16.98
35202;BME280;20553;47.544;7.586;2022-07-09T10:26:00;99143.84;;;38.46;16.97
35202;BME280;20553;47.544;7.586;2022-07-09T10:31:07;99137.63;;;39.78;15.93
35202;BME280;20553;47.544;7.586;2022-07-09T10:36:18;99122.78;;;39.56;15.99
35202;BME280;20553;47.544;7.586;2022-07-09T10:41:23;99125.59;;;38.94;17.18
35202;BME280;20553;47.544;7.586;2022-07-09T10:46:28;99126.47;;;39.39;15.89
35202;BME280;20553;47.544;7.586;2022-07-09T16:52:42;98823.19;;;37.67;17.02
35202;BME280;20553;47.544;7.586;2022-07-09T16:57:47;98828.63;;;37.57;17.06
35202;BME280;20553;47.544;7.586;2022-07-09T17:02:52;98824.91;;;37.17;17.45
35202;BME280;20553;47.544;7.586;2022-07-09T17:07:57;98817.53;;;36.65;18.06
35202;BME280;20553;47.544;7.586;2022-07-09T17:13:02;98817.75;;;36.75;18.05
35202;BME280;20553;47.544;7.586;2022-07-09T17:18:06;98825.34;;;33.44;21.42
35202;BME280;20553;47.544;7.586;2022-07-09T17:23:12;98828.56;;;32.84;22.56
35202;BME280;20553;47.544;7.586;2022-07-09T17:28:17;98832.06;;;34.96;20.06
35202;BME280;20553;47.544;7.586;2022-07-09T17:33:21;98831.06;;;34.60;20.83
35202;BME280;20553;47.544;7.586;2022-07-09T17:38:26;98824.19;;;32.31;23.14
35202;BME280;20553;47.544;7.586;2022-07-09T17:43:31;98833.59;;;30.43;25.59
35202;BME280;20553;47.544;7.586;2022-07-09T17:48:36;98826.16;;;29.32;27.05
35202;BME280;20553;47.544;7.586;2022-07-09T17:53:42;98832.91;;;28.43;28.21
35202;BME280;20553;47.544;7.586;2022-07-09T17:58:46;98823.66;;;28.14;28.85
35202;BME280;20553;47.544;7.586;2022-07-09T18:03:50;98823.00;;;27.52;29.95
35202;BME280;20553;47.544;7.586;2022-07-09T18:08:56;98826.47;;;27.31;30.23
35202;BME280;20553;47.544;7.586;2022-07-09T18:13:59;98831.34;;;26.83;31.57
35202;BME280;20553;47.544;7.586;2022-07-09T18:19:04;98834.97;;;26.52;31.81
35202;BME280;20553;47.544;7.586;2022-07-09T18:24:09;98839.25;;;26.31;32.42
35202;BME280;20553;47.544;7.586;2022-07-09T18:29:13;98833.28;;;26.19;32.35
35202;BME280;20553;47.544;7.586;2022-07-09T18:34:22;98832.84;;;26.08;32.51
35202;BME280;20553;47.544;7.586;2022-07-09T18:39:28;98834.13;;;25.72;33.32
35202;BME280;20553;47.544;7.586;2022-07-09T18:44:34;98838.13;;;25.53;33.86
35202;BME280;20553;47.544;7.586;2022-07-09T18:49:41;98832.88;;;25.35;34.41
35202;BME280;20553;47.544;7.586;2022-07-09T18:54:47;98836.78;;;25.24;34.75
35202;BME280;20553;47.544;7.586;2022-07-09T18:59:53;98829.63;;;25.07;35.41
35202;BME280;20553;47.544;7.586;2022-07-09T19:04:58;98832.47;;;24.56;36.85
35202;BME280;20553;47.544;7.586;2022-07-09T19:10:05;98842.88;;;24.36;37.30
35202;BME280;20553;47.544;7.586;2022-07-09T19:15:10;98838.94;;;24.30;38.19
35202;BME280;20553;47.544;7.586;2022-07-09T19:20:14;98837.00;;;24.06;38.41
35202;BME280;20553;47.544;7.586;2022-07-09T19:25:20;98842.81;;;23.77;39.20
35202;BME280;20553;47.544;7.586;2022-07-09T19:30:24;98837.19;;;23.52;40.09
35202;BME280;20553;47.544;7.586;2022-07-09T19:35:42;98848.22;;;23.34;40.88
35202;BME280;20553;47.544;7.586;2022-07-09T19:40:47;98851.00;;;23.16;41.41
35202;BME280;20553;47.544;7.586;2022-07-09T19:45:51;98854.66;;;23.07;41.67
35202;BME280;20553;47.544;7.586;2022-07-09T19:50:55;98859.03;;;23.18;41.82
35202;BME280;20553;47.544;7.586;2022-07-09T19:56:01;98869.00;;;23.27;41.57
35202;BME280;20553;47.544;7.586;2022-07-09T20:01:09;98868.03;;;23.36;40.82
35202;BME280;20553;47.544;7.586;2022-07-09T20:06:13;98871.59;;;23.28;41.28
35202;BME280;20553;47.544;7.586;2022-07-09T20:11:22;98885.25;;;23.10;41.74
35202;BME280;20553;47.544;7.586;2022-07-09T20:16:29;98882.44;;;23.02;42.13
35202;BME280;20553;47.544;7.586;2022-07-09T20:21:33;98884.63;;;22.98;42.27
35202;BME280;20553;47.544;7.586;2022-07-09T20:26:39;98885.59;;;22.71;42.90
35202;BME280;20553;47.544;7.586;2022-07-09T20:31:43;98883.84;;;22.52;43.37
35202;BME280;20553;47.544;7.586;2022-07-09T20:36:48;98882.28;;;22.50;43.20
35202;BME280;20553;47.544;7.586;2022-07-09T20:41:54;98877.91;;;22.39;43.55
35202;BME280;20553;47.544;7.586;2022-07-09T20:47:00;98871.88;;;22.07;44.02
35202;BME280;20553;47.544;7.586;2022-07-09T20:52:09;98876.06;;;21.74;45.02
35202;BME280;20553;47.544;7.586;2022-07-09T20:57:15;98878.16;;;21.52;45.62
35202;BME280;20553;47.544;7.586;2022-07-09T21:02:19;98885.66;;;21.21;49.14
35202;BME280;20553;47.544;7.586;2022-07-09T21:07:23;98884.25;;;20.78;51.48
35202;BME280;20553;47.544;7.586;2022-07-09T21:12:29;98886.47;;;20.43;53.81
35202;BME280;20553;47.544;7.586;2022-07-09T21:17:33;98887.41;;;20.13;55.90
35202;BME280;20553;47.544;7.586;2022-07-09T21:22:54;98888.19;;;19.84;57.81
35202;BME280;20553;47.544;7.586;2022-07-09T21:28:00;98885.00;;;19.58;60.59
35202;BME280;20553;47.544;7.586;2022-07-09T21:33:04;98883.91;;;19.40;62.57
35202;BME280;20553;47.544;7.586;2022-07-09T21:38:08;98884.88;;;19.29;63.93
35202;BME280;20553;47.544;7.586;2022-07-09T21:43:14;98883.28;;;19.05;65.99
35202;BME280;20553;47.544;7.586;2022-07-09T21:48:17;98872.25;;;18.86;67.21
35202;BME280;20553;47.544;7.586;2022-07-09T21:53:21;98876.41;;;18.69;68.27
35202;BME280;20553;47.544;7.586;2022-07-09T21:58:27;98873.09;;;18.54;68.92
35202;BME280;20553;47.544;7.586;2022-07-09T22:03:31;98866.41;;;18.37;69.45
35202;BME280;20553;47.544;7.586;2022-07-09T22:08:36;98861.88;;;18.26;71.01
35202;BME280;20553;47.544;7.586;2022-07-09T22:13:42;98867.94;;;18.18;71.51
35202;BME280;20553;47.544;7.586;2022-07-09T22:18:48;98859.69;;;18.08;72.25
35202;BME280;20553;47.544;7.586;2022-07-09T22:23:53;98862.19;;;18.00;72.47
35202;BME280;20553;47.544;7.586;2022-07-09T22:28:58;98868.31;;;17.80;73.34
35202;BME280;20553;47.544;7.586;2022-07-09T22:34:02;98869.19;;;17.58;74.17
35202;BME280;20553;47.544;7.586;2022-07-09T22:39:09;98868.31;;;17.46;74.40
35202;BME280;20553;47.544;7.586;2022-07-09T22:44:14;98863.91;;;17.45;74.67
35202;BME280;20553;47.544;7.586;2022-07-09T22:49:18;98859.69;;;17.29;74.88
35202;BME280;20553;47.544;7.586;2022-07-09T22:54:23;98867.81;;;17.18;75.59
35202;BME280;20553;47.544;7.586;2022-07-09T22:59:28;98866.69;;;17.20;76.25
35202;BME280;20553;47.544;7.586;2022-07-09T23:04:32;98867.31;;;17.24;76.21
35202;BME280;20553;47.544;7.586;2022-07-09T23:09:37;98864.22;;;17.17;76.71
35202;BME280;20553;47.544;7.586;2022-07-09T23:14:42;98856.59;;;17.11;77.58
35202;BME280;20553;47.544;7.586;2022-07-09T23:19:47;98853.50;;;17.05;77.88
35202;BME280;20553;47.544;7.586;2022-07-09T23:24:51;98855.47;;;17.02;77.24
35202;BME280;20553;47.544;7.586;2022-07-09T23:30:07;98847.44;;;16.90;77.98
35202;BME280;20553;47.544;7.586;2022-07-09T23:35:13;98844.44;;;16.81;79.04
35202;BME280;20553;47.544;7.586;2022-07-09T23:40:18;98832.72;;;16.81;79.81
35202;BME280;20553;47.544;7.586;2022-07-09T23:45:23;98829.28;;;16.79;79.74
35202;BME280;20553;47.544;7.586;2022-07-09T23:50:27;98837.53;;;16.77;79.74
35202;BME280;20553;47.544;7.586;2022-07-09T23:55:31;98836.06;;;16.73;79.72
